sensor_id;sensor_type;location;lat;lon;timestamp;P1;durP1;ratioP1;P2;durP2;ratioP2
46355;SDS011;32066;49.474;11.106;2023-08-21T00:00:10;14.10;;;8.85;;
46355;SDS011;32066;49.474;11.106;2023-08-21T00:02:39;13.73;;;9.23;;
46355;SDS011;32066;49.474;11.106;2023-08-21T00:05:09;13.98;;;8.68;;
46355;SDS011;32066;49.474;11.106;2023-08-21T00:07:37;13.20;;;9.13;;
46355;SDS011;32066;49.474;11.106;2023-08-21T00:10:07;10.55;;;8.75;;
46355;SDS011;32066;49.474;11.106;2023-08-21T00:12:41;10.68;;;8.38;;
46355;SDS011;32066;49.474;11.106;2023-08-21T00:15:10;11.07;;;8.88;;
46355;SDS011;32066;49.474;11.106;2023-08-21T00:17:39;12.68;;;9.18;;
46355;SDS011;32066;49.474;11.106;2023-08-21T00:20:08;14.77;;;9.27;;
46355;SDS011;32066;49.474;11.106;2023-08-21T00:22:37;10.50;;;8.30;;
46355;SDS011;32066;49.474;11.106;2023-08-21T00:25:06;14.45;;;8.85;;
46355;SDS011;32066;49.474;11.106;2023-08-21T00:27:35;15.48;;;8.55;;
46355;SDS011;32066;49.474;11.106;2023-08-21T00:30:08;11.80;;;8.50;;
46355;SDS011;32066;49.474;11.106;2023-08-21T00:32:41;14.20;;;9.38;;
46355;SDS011;32066;49.474;11.106;2023-08-21T00:35:10;9.93;;;8.30;;
46355;SDS011;32066;49.474;11.106;2023-08-21T00:37:38;13.15;;;8.23;;
46355;SDS011;32066;49.474;11.106;2023-08-21T00:40:07;13.80;;;9.48;;
46355;SDS011;32066;49.474;11.106;2023-08-21T00:42:37;14.80;;;8.75;;
46355;SDS011;32066;49.474;11.106;2023-08-21T00:45:08;12.40;;;9.27;;
46355;SDS011;32066;49.474;11.106;2023-08-21T00:47:37;13.02;;;9.07;;
46355;SDS011;32066;49.474;11.106;2023-08-21T00:50:06;14.23;;;8.45;;
46355;SDS011;32066;49.474;11.106;2023-08-21T00:52:36;14.57;;;9.15;;
46355;SDS011;32066;49.474;11.106;2023-08-21T00:55:08;12.02;;;8.65;;
46355;SDS011;32066;49.474;11.106;2023-08-21T00:57:37;12.68;;;8.13;;
46355;SDS011;32066;49.474;11.106;2023-08-21T01:00:09;15.07;;;9.30;;
46355;SDS011;32066;49.474;11.106;2023-08-21T01:02:39;12.07;;;8.80;;
46355;SDS011;32066;49.474;11.106;2023-08-21T01:05:08;13.45;;;8.98;;
46355;SDS011;32066;49.474;11.106;2023-08-21T01:07:38;11.80;;;9.02;;
46355;SDS011;32066;49.474;11.106;2023-08-21T01:10:19;11.95;;;8.82;;
46355;SDS011;32066;49.474;11.106;2023-08-21T01:12:56;11.35;;;8.85;;
46355;SDS011;32066;49.474;11.106;2023-08-21T01:15:34;14.48;;;9.10;;
46355;SDS011;32066;49.474;11.106;2023-08-21T01:18:05;11.25;;;9.10;;
46355;SDS011;32066;49.474;11.106;2023-08-21T01:20:34;10.48;;;8.73;;
46355;SDS011;32066;49.474;11.106;2023-08-21T01:23:04;12.15;;;9.20;;
46355;SDS011;32066;49.474;11.106;2023-08-21T01:25:36;15.38;;;10.77;;
46355;SDS011;32066;49.474;11.106;2023-08-21T01:28:05;12.95;;;10.50;;
46355;SDS011;32066;49.474;11.106;2023-08-21T01:30:34;17.02;;;11.10;;
46355;SDS011;32066;49.474;11.106;2023-08-21T01:33:05;16.02;;;11.48;;
46355;SDS011;32066;49.474;11.106;2023-08-21T01:35:38;15.95;;;11.63;;
46355;SDS011;32066;49.474;11.106;2023-08-21T01:38:07;18.83;;;12.75;;
46355;SDS011;32066;49.474;11.106;2023-08-21T01:40:39;19.85;;;12.52;;
46355;SDS011;32066;49.474;11.106;2023-08-21T01:43:10;19.73;;;13.35;;
46355;SDS011;32066;49.474;11.106;2023-08-21T01:45:38;16.95;;;12.18;;
46355;SDS011;32066;49.474;11.106;2023-08-21T01:48:07;18.98;;;11.75;;
46355;SDS011;32066;49.474;11.106;2023-08-21T01:50:36;16.30;;;12.88;;
46355;SDS011;32066;49.474;11.106;2023-08-21T01:53:04;19.02;;;12.57;;
46355;SDS011;32066;49.474;11.106;2023-08-21T01:55:33;19.15;;;12.23;;
46355;SDS011;32066;49.474;11.106;2023-08-21T01:58:04;13.77;;;11.50;;
46355;SDS011;32066;49.474;11.106;2023-08-21T02:00:33;19.30;;;12.80;;
46355;SDS011;32066;49.474;11.106;2023-08-21T02:03:02;17.17;;;11.85;;
46355;SDS011;32066;49.474;11.106;2023-08-21T02:05:30;17.08;;;11.98;;
46355;SDS011;32066;49.474;11.106;2023-08-21T02:08:04;15.75;;;12.43;;
46355;SDS011;32066;49.474;11.106;2023-08-21T02:10:34;15.63;;;10.93;;
46355;SDS011;32066;49.474;11.106;2023-08-21T02:13:05;14.73;;;11.98;;
46355;SDS011;32066;49.474;11.106;2023-08-21T02:15:34;15.88;;;11.75;;
46355;SDS011;32066;49.474;11.106;2023-08-21T02:18:02;15.15;;;11.85;;
46355;SDS011;32066;49.474;11.106;2023-08-21T02:20:32;15.52;;;11.93;;
46355;SDS011;32066;49.474;11.106;2023-08-21T02:23:00;15.07;;;11.75;;
46355;SDS011;32066;49.474;11.106;2023-08-21T02:25:29;17.10;;;11.60;;
46355;SDS011;32066;49.474;11.106;2023-08-21T02:27:58;12.52;;;10.93;;
46355;SDS011;32066;49.474;11.106;2023-08-21T02:30:29;14.73;;;11.65;;
46355;SDS011;32066;49.474;11.106;2023-08-21T02:32:58;16.45;;;11.60;;
46355;SDS011;32066;49.474;11.106;2023-08-21T02:35:27;16.25;;;11.88;;
46355;SDS011;32066;49.474;11.106;2023-08-21T02:37:55;18.38;;;11.27;;
46355;SDS011;32066;49.474;11.106;2023-08-21T02:40:25;15.00;;;11.07;;
46355;SDS011;32066;49.474;11.106;2023-08-21T02:42:53;17.95;;;11.35;;
46355;SDS011;32066;49.474;11.106;2023-08-21T02:45:22;15.40;;;11.43;;
46355;SDS011;32066;49.474;11.106;2023-08-21T02:47:53;13.48;;;11.05;;
46355;SDS011;32066;49.474;11.106;2023-08-21T02:50:22;15.68;;;11.57;;
46355;SDS011;32066;49.474;11.106;2023-08-21T02:52:50;16.05;;;11.18;;
46355;SDS011;32066;49.474;11.106;2023-08-21T02:55:19;16.02;;;12.05;;
46355;SDS011;32066;49.474;11.106;2023-08-21T02:57:48;17.52;;;11.85;;
46355;SDS011;32066;49.474;11.106;2023-08-21T03:00:17;17.70;;;12.10;;
46355;SDS011;32066;49.474;11.106;2023-08-21T03:02:45;16.20;;;12.18;;
46355;SDS011;32066;49.474;11.106;2023-08-21T03:05:17;15.63;;;11.50;;
46355;SDS011;32066;49.474;11.106;2023-08-21T03:07:46;16.40;;;12.10;;
46355;SDS011;32066;49.474;11.106;2023-08-21T03:10:15;16.25;;;11.98;;
46355;SDS011;32066;49.474;11.106;2023-08-21T03:12:44;15.52;;;11.65;;
46355;SDS011;32066;49.474;11.106;2023-08-21T03:15:12;14.88;;;12.18;;
46355;SDS011;32066;49.474;11.106;2023-08-21T03:17:41;13.55;;;11.70;;
46355;SDS011;32066;49.474;11.106;2023-08-21T03:20:10;13.65;;;11.55;;
46355;SDS011;32066;49.474;11.106;2023-08-21T03:22:41;14.23;;;11.65;;
46355;SDS011;32066;49.474;11.106;2023-08-21T03:25:10;13.13;;;11.73;;
46355;SDS011;32066;49.474;11.106;2023-08-21T03:27:39;14.25;;;11.32;;
46355;SDS011;32066;49.474;11.106;2023-08-21T03:30:10;13.52;;;12.13;;
46355;SDS011;32066;49.474;11.106;2023-08-21T03:32:40;16.77;;;11.85;;
46355;SDS011;32066;49.474;11.106;2023-08-21T03:35:09;17.35;;;11.90;;
46355;SDS011;32066;49.474;11.106;2023-08-21T03:37:38;15.82;;;12.27;;
46355;SDS011;32066;49.474;11.106;2023-08-21T03:40:14;16.85;;;12.50;;
46355;SDS011;32066;49.474;11.106;2023-08-21T03:42:42;15.52;;;11.95;;
46355;SDS011;32066;49.474;11.106;2023-08-21T03:45:11;18.92;;;12.63;;
46355;SDS011;32066;49.474;11.106;2023-08-21T03:47:39;16.02;;;12.07;;
46355;SDS011;32066;49.474;11.106;2023-08-21T03:50:15;15.23;;;12.52;;
46355;SDS011;32066;49.474;11.106;2023-08-21T03:52:44;15.13;;;11.68;;
46355;SDS011;32066;49.474;11.106;2023-08-21T03:55:15;14.93;;;11.85;;
46355;SDS011;32066;49.474;11.106;2023-08-21T03:57:44;14.68;;;11.98;;
46355;SDS011;32066;49.474;11.106;2023-08-21T04:00:13;14.77;;;11.80;;
46355;SDS011;32066;49.474;11.106;2023-08-21T04:02:42;15.35;;;12.23;;
46355;SDS011;32066;49.474;11.106;2023-08-21T04:05:11;14.23;;;11.65;;
46355;SDS011;32066;49.474;11.106;2023-08-21T04:07:39;17.33;;;12.27;;
46355;SDS011;32066;49.474;11.106;2023-08-21T04:10:08;17.15;;;12.15;;
46355;SDS011;32066;49.474;11.106;2023-08-21T04:12:40;14.57;;;11.60;;
46355;SDS011;32066;49.474;11.106;2023-08-21T04:15:09;15.52;;;12.82;;
46355;SDS011;32066;49.474;11.106;2023-08-21T04:17:38;15.13;;;12.63;;
46355;SDS011;32066;49.474;11.106;2023-08-21T04:20:07;18.63;;;13.27;;
46355;SDS011;32066;49.474;11.106;2023-08-21T04:22:37;15.98;;;12.98;;
46355;SDS011;32066;49.474;11.106;2023-08-21T04:25:05;16.20;;;12.32;;
46355;SDS011;32066;49.474;11.106;2023-08-21T04:27:35;13.23;;;11.82;;
46355;SDS011;32066;49.474;11.106;2023-08-21T04:30:07;13.50;;;11.70;;
46355;SDS011;32066;49.474;11.106;2023-08-21T04:32:36;16.98;;;12.48;;
46355;SDS011;32066;49.474;11.106;2023-08-21T04:35:06;16.52;;;13.20;;
46355;SDS011;32066;49.474;11.106;2023-08-21T04:37:37;14.68;;;12.32;;
46355;SDS011;32066;49.474;11.106;2023-08-21T04:40:12;20.70;;;13.48;;
46355;SDS011;32066;49.474;11.106;2023-08-21T04:42:42;26.20;;;17.00;;
46355;SDS011;32066;49.474;11.106;2023-08-21T04:45:14;22.20;;;15.50;;
46355;SDS011;32066;49.474;11.106;2023-08-21T04:47:43;23.65;;;14.38;;
46355;SDS011;32066;49.474;11.106;2023-08-21T04:50:11;24.23;;;14.43;;
46355;SDS011;32066;49.474;11.106;2023-08-21T04:52:41;17.95;;;13.90;;
46355;SDS011;32066;49.474;11.106;2023-08-21T04:55:09;19.88;;;13.85;;
46355;SDS011;32066;49.474;11.106;2023-08-21T04:57:38;15.95;;;14.25;;
46355;SDS011;32066;49.474;11.106;2023-08-21T05:00:10;19.95;;;13.15;;
46355;SDS011;32066;49.474;11.106;2023-08-21T05:02:44;16.48;;;13.45;;
46355;SDS011;32066;49.474;11.106;2023-08-21T05:05:12;15.68;;;12.63;;
46355;SDS011;32066;49.474;11.106;2023-08-21T05:07:41;15.90;;;12.18;;
46355;SDS011;32066;49.474;11.106;2023-08-21T05:10:11;15.82;;;13.43;;
46355;SDS011;32066;49.474;11.106;2023-08-21T05:12:41;15.82;;;14.13;;
46355;SDS011;32066;49.474;11.106;2023-08-21T05:15:10;15.82;;;13.60;;
46355;SDS011;32066;49.474;11.106;2023-08-21T05:17:39;18.58;;;13.23;;
46355;SDS011;32066;49.474;11.106;2023-08-21T05:20:11;18.52;;;13.77;;
46355;SDS011;32066;49.474;11.106;2023-08-21T05:22:40;15.18;;;13.38;;
46355;SDS011;32066;49.474;11.106;2023-08-21T05:25:10;16.45;;;14.70;;
46355;SDS011;32066;49.474;11.106;2023-08-21T05:27:39;17.23;;;14.60;;
46355;SDS011;32066;49.474;11.106;2023-08-21T05:30:08;18.38;;;15.20;;
46355;SDS011;32066;49.474;11.106;2023-08-21T05:32:38;20.17;;;14.57;;
46355;SDS011;32066;49.474;11.106;2023-08-21T05:35:07;18.13;;;14.38;;
46355;SDS011;32066;49.474;11.106;2023-08-21T05:37:40;20.85;;;14.68;;
46355;SDS011;32066;49.474;11.106;2023-08-21T05:40:09;15.88;;;14.18;;
46355;SDS011;32066;49.474;11.106;2023-08-21T05:42:39;16.98;;;13.63;;
46355;SDS011;32066;49.474;11.106;2023-08-21T05:45:07;17.27;;;14.32;;
46355;SDS011;32066;49.474;11.106;2023-08-21T05:47:36;19.77;;;14.88;;
46355;SDS011;32066;49.474;11.106;2023-08-21T05:50:05;21.15;;;15.80;;
46355;SDS011;32066;49.474;11.106;2023-08-21T05:52:37;17.90;;;14.93;;
46355;SDS011;32066;49.474;11.106;2023-08-21T05:55:07;17.48;;;14.20;;
46355;SDS011;32066;49.474;11.106;2023-08-21T05:57:37;17.58;;;14.45;;
46355;SDS011;32066;49.474;11.106;2023-08-21T06:00:06;15.48;;;13.88;;
46355;SDS011;32066;49.474;11.106;2023-08-21T06:02:42;16.92;;;15.13;;
46355;SDS011;32066;49.474;11.106;2023-08-21T06:05:22;20.27;;;15.75;;
46355;SDS011;32066;49.474;11.106;2023-08-21T06:07:54;17.75;;;14.45;;
46355;SDS011;32066;49.474;11.106;2023-08-21T06:10:23;18.65;;;14.13;;
46355;SDS011;32066;49.474;11.106;2023-08-21T06:12:51;18.35;;;14.07;;
46355;SDS011;32066;49.474;11.106;2023-08-21T06:15:20;17.02;;;13.77;;
46355;SDS011;32066;49.474;11.106;2023-08-21T06:17:49;17.52;;;14.68;;
46355;SDS011;32066;49.474;11.106;2023-08-21T06:20:18;22.17;;;15.02;;
46355;SDS011;32066;49.474;11.106;2023-08-21T06:22:47;16.52;;;14.38;;
46355;SDS011;32066;49.474;11.106;2023-08-21T06:25:18;20.92;;;14.77;;
46355;SDS011;32066;49.474;11.106;2023-08-21T06:27:47;17.95;;;15.15;;
46355;SDS011;32066;49.474;11.106;2023-08-21T06:30:15;20.55;;;15.48;;
46355;SDS011;32066;49.474;11.106;2023-08-21T06:32:45;16.63;;;14.98;;
46355;SDS011;32066;49.474;11.106;2023-08-21T06:35:15;22.35;;;16.20;;
46355;SDS011;32066;49.474;11.106;2023-08-21T06:37:44;17.25;;;15.25;;
46355;SDS011;32066;49.474;11.106;2023-08-21T06:40:13;18.90;;;15.10;;
46355;SDS011;32066;49.474;11.106;2023-08-21T06:42:45;18.73;;;16.27;;
46355;SDS011;32066;49.474;11.106;2023-08-21T06:45:16;21.48;;;15.38;;
46355;SDS011;32066;49.474;11.106;2023-08-21T06:47:48;17.45;;;15.60;;
46355;SDS011;32066;49.474;11.106;2023-08-21T06:50:17;19.83;;;15.70;;
46355;SDS011;32066;49.474;11.106;2023-08-21T06:52:45;20.55;;;16.88;;
46355;SDS011;32066;49.474;11.106;2023-08-21T06:55:14;19.30;;;16.70;;
46355;SDS011;32066;49.474;11.106;2023-08-21T06:57:46;21.23;;;15.77;;
46355;SDS011;32066;49.474;11.106;2023-08-21T07:00:14;18.90;;;16.35;;
46355;SDS011;32066;49.474;11.106;2023-08-21T07:02:43;19.23;;;16.10;;
46355;SDS011;32066;49.474;11.106;2023-08-21T07:05:12;19.42;;;17.33;;
46355;SDS011;32066;49.474;11.106;2023-08-21T07:07:41;18.88;;;16.65;;
46355;SDS011;32066;49.474;11.106;2023-08-21T07:10:10;21.95;;;17.30;;
46355;SDS011;32066;49.474;11.106;2023-08-21T07:12:39;17.90;;;15.85;;
46355;SDS011;32066;49.474;11.106;2023-08-21T07:15:11;19.58;;;16.67;;
46355;SDS011;32066;49.474;11.106;2023-08-21T07:17:40;17.45;;;15.55;;
46355;SDS011;32066;49.474;11.106;2023-08-21T07:20:10;18.98;;;15.73;;
46355;SDS011;32066;49.474;11.106;2023-08-21T07:22:39;17.83;;;15.68;;
46355;SDS011;32066;49.474;11.106;2023-08-21T07:25:08;20.13;;;16.58;;
46355;SDS011;32066;49.474;11.106;2023-08-21T07:27:36;18.80;;;16.42;;
46355;SDS011;32066;49.474;11.106;2023-08-21T07:30:06;22.63;;;15.93;;
46355;SDS011;32066;49.474;11.106;2023-08-21T07:32:38;26.42;;;17.23;;
46355;SDS011;32066;49.474;11.106;2023-08-21T07:35:07;20.77;;;17.35;;
46355;SDS011;32066;49.474;11.106;2023-08-21T07:37:36;19.48;;;16.55;;
46355;SDS011;32066;49.474;11.106;2023-08-21T07:40:07;18.92;;;16.92;;
46355;SDS011;32066;49.474;11.106;2023-08-21T07:42:36;20.92;;;17.23;;
46355;SDS011;32066;49.474;11.106;2023-08-21T07:45:05;22.50;;;18.55;;
46355;SDS011;32066;49.474;11.106;2023-08-21T07:47:35;21.75;;;18.10;;
46355;SDS011;32066;49.474;11.106;2023-08-21T07:50:07;21.30;;;18.23;;
46355;SDS011;32066;49.474;11.106;2023-08-21T07:52:36;21.77;;;19.17;;
46355;SDS011;32066;49.474;11.106;2023-08-21T07:55:05;20.85;;;18.63;;
46355;SDS011;32066;49.474;11.106;2023-08-21T07:57:35;21.55;;;17.52;;
46355;SDS011;32066;49.474;11.106;2023-08-21T08:00:04;23.20;;;18.58;;
46355;SDS011;32066;49.474;11.106;2023-08-21T08:02:41;20.45;;;16.90;;
46355;SDS011;32066;49.474;11.106;2023-08-21T08:05:09;20.20;;;15.73;;
46355;SDS011;32066;49.474;11.106;2023-08-21T08:07:38;22.02;;;16.77;;
46355;SDS011;32066;49.474;11.106;2023-08-21T08:10:07;19.08;;;16.98;;
46355;SDS011;32066;49.474;11.106;2023-08-21T08:12:35;21.48;;;17.30;;
46355;SDS011;32066;49.474;11.106;2023-08-21T08:15:05;19.02;;;17.02;;
46355;SDS011;32066;49.474;11.106;2023-08-21T08:17:34;22.98;;;17.15;;
46355;SDS011;32066;49.474;11.106;2023-08-21T08:20:06;23.48;;;17.98;;
46355;SDS011;32066;49.474;11.106;2023-08-21T08:22:35;23.02;;;16.63;;
46355;SDS011;32066;49.474;11.106;2023-08-21T08:25:04;17.90;;;15.65;;
46355;SDS011;32066;49.474;11.106;2023-08-21T08:27:34;16.90;;;14.88;;
46355;SDS011;32066;49.474;11.106;2023-08-21T08:30:03;16.58;;;14.73;;
46355;SDS011;32066;49.474;11.106;2023-08-21T08:32:32;18.13;;;14.52;;
46355;SDS011;32066;49.474;11.106;2023-08-21T08:35:00;20.05;;;15.27;;
46355;SDS011;32066;49.474;11.106;2023-08-21T08:37:32;24.27;;;14.65;;
46355;SDS011;32066;49.474;11.106;2023-08-21T08:40:00;17.73;;;15.35;;
46355;SDS011;32066;49.474;11.106;2023-08-21T08:42:29;17.15;;;15.00;;
46355;SDS011;32066;49.474;11.106;2023-08-21T08:44:58;17.20;;;14.55;;
46355;SDS011;32066;49.474;11.106;2023-08-21T08:47:31;20.63;;;16.13;;
46355;SDS011;32066;49.474;11.106;2023-08-21T08:50:01;22.13;;;16.42;;
46355;SDS011;32066;49.474;11.106;2023-08-21T08:52:35;18.48;;;15.63;;
46355;SDS011;32066;49.474;11.106;2023-08-21T08:55:05;16.75;;;14.52;;
46355;SDS011;32066;49.474;11.106;2023-08-21T08:57:36;18.10;;;15.48;;
46355;SDS011;32066;49.474;11.106;2023-08-21T09:00:05;20.92;;;16.23;;
46355;SDS011;32066;49.474;11.106;2023-08-21T09:02:35;19.33;;;15.73;;
46355;SDS011;32066;49.474;11.106;2023-08-21T09:05:04;20.65;;;16.00;;
46355;SDS011;32066;49.474;11.106;2023-08-21T09:07:36;19.40;;;16.17;;
46355;SDS011;32066;49.474;11.106;2023-08-21T09:10:05;19.23;;;16.35;;
46355;SDS011;32066;49.474;11.106;2023-08-21T09:12:44;18.45;;;15.50;;
46355;SDS011;32066;49.474;11.106;2023-08-21T09:15:14;20.00;;;15.85;;
46355;SDS011;32066;49.474;11.106;2023-08-21T09:17:43;24.45;;;15.20;;
46355;SDS011;32066;49.474;11.106;2023-08-21T09:20:11;20.42;;;15.55;;
46355;SDS011;32066;49.474;11.106;2023-08-21T09:22:42;18.65;;;13.45;;
46355;SDS011;32066;49.474;11.106;2023-08-21T09:25:22;16.92;;;14.20;;
46355;SDS011;32066;49.474;11.106;2023-08-21T09:27:51;16.38;;;13.05;;
46355;SDS011;32066;49.474;11.106;2023-08-21T09:30:21;15.65;;;13.32;;
46355;SDS011;32066;49.474;11.106;2023-08-21T09:32:53;18.48;;;13.20;;
46355;SDS011;32066;49.474;11.106;2023-08-21T09:35:23;15.20;;;12.25;;
46355;SDS011;32066;49.474;11.106;2023-08-21T09:37:54;16.58;;;13.43;;
46355;SDS011;32066;49.474;11.106;2023-08-21T09:40:23;14.57;;;10.95;;
46355;SDS011;32066;49.474;11.106;2023-08-21T09:42:52;14.35;;;11.00;;
46355;SDS011;32066;49.474;11.106;2023-08-21T09:45:21;13.85;;;11.98;;
46355;SDS011;32066;49.474;11.106;2023-08-21T09:47:51;12.68;;;11.32;;
46355;SDS011;32066;49.474;11.106;2023-08-21T09:50:21;13.63;;;10.80;;
46355;SDS011;32066;49.474;11.106;2023-08-21T09:52:50;15.45;;;10.98;;
46355;SDS011;32066;49.474;11.106;2023-08-21T09:55:22;12.05;;;10.55;;
46355;SDS011;32066;49.474;11.106;2023-08-21T09:57:55;14.40;;;11.27;;
46355;SDS011;32066;49.474;11.106;2023-08-21T10:00:27;12.25;;;10.90;;
46355;SDS011;32066;49.474;11.106;2023-08-21T10:02:59;15.52;;;11.30;;
46355;SDS011;32066;49.474;11.106;2023-08-21T10:05:30;16.83;;;11.60;;
46355;SDS011;32066;49.474;11.106;2023-08-21T10:08:00;14.98;;;11.70;;
46355;SDS011;32066;49.474;11.106;2023-08-21T10:10:34;12.10;;;10.65;;
46355;SDS011;32066;49.474;11.106;2023-08-21T10:13:04;16.25;;;10.50;;
46355;SDS011;32066;49.474;11.106;2023-08-21T10:15:34;13.75;;;11.20;;
46355;SDS011;32066;49.474;11.106;2023-08-21T10:18:18;12.80;;;10.50;;
46355;SDS011;32066;49.474;11.106;2023-08-21T10:20:48;13.52;;;10.48;;
46355;SDS011;32066;49.474;11.106;2023-08-21T10:23:24;16.73;;;10.60;;
46355;SDS011;32066;49.474;11.106;2023-08-21T10:25:57;13.55;;;10.90;;
46355;SDS011;32066;49.474;11.106;2023-08-21T10:28:40;13.40;;;11.10;;
46355;SDS011;32066;49.474;11.106;2023-08-21T10:31:26;12.60;;;10.88;;
46355;SDS011;32066;49.474;11.106;2023-08-21T10:33:55;14.43;;;10.90;;
46355;SDS011;32066;49.474;11.106;2023-08-21T10:36:41;13.77;;;10.25;;
46355;SDS011;32066;49.474;11.106;2023-08-21T10:39:35;13.73;;;9.80;;
46355;SDS011;32066;49.474;11.106;2023-08-21T10:42:10;15.52;;;10.23;;
46355;SDS011;32066;49.474;11.106;2023-08-21T10:44:48;12.27;;;8.90;;
46355;SDS011;32066;49.474;11.106;2023-08-21T10:47:31;10.32;;;8.50;;
46355;SDS011;32066;49.474;11.106;2023-08-21T10:50:01;12.07;;;8.88;;
46355;SDS011;32066;49.474;11.106;2023-08-21T10:52:33;12.98;;;8.48;;
46355;SDS011;32066;49.474;11.106;2023-08-21T10:55:05;13.23;;;7.60;;
46355;SDS011;32066;49.474;11.106;2023-08-21T10:57:37;13.98;;;7.63;;
46355;SDS011;32066;49.474;11.106;2023-08-21T11:00:07;12.77;;;7.68;;
46355;SDS011;32066;49.474;11.106;2023-08-21T11:02:37;11.07;;;6.70;;
46355;SDS011;32066;49.474;11.106;2023-08-21T11:05:07;8.80;;;6.35;;
46355;SDS011;32066;49.474;11.106;2023-08-21T11:07:36;8.73;;;6.85;;
46355;SDS011;32066;49.474;11.106;2023-08-21T11:10:07;9.98;;;6.38;;
46355;SDS011;32066;49.474;11.106;2023-08-21T11:12:40;11.23;;;7.22;;
46355;SDS011;32066;49.474;11.106;2023-08-21T11:15:16;10.77;;;6.93;;
46355;SDS011;32066;49.474;11.106;2023-08-21T11:17:52;9.25;;;6.35;;
46355;SDS011;32066;49.474;11.106;2023-08-21T11:20:22;10.43;;;6.40;;
46355;SDS011;32066;49.474;11.106;2023-08-21T11:22:56;9.90;;;6.65;;
46355;SDS011;32066;49.474;11.106;2023-08-21T11:25:27;12.90;;;7.03;;
46355;SDS011;32066;49.474;11.106;2023-08-21T11:27:59;9.85;;;6.70;;
46355;SDS011;32066;49.474;11.106;2023-08-21T11:30:27;10.05;;;6.85;;
46355;SDS011;32066;49.474;11.106;2023-08-21T11:33:04;9.15;;;6.32;;
46355;SDS011;32066;49.474;11.106;2023-08-21T11:35:33;9.25;;;6.50;;
46355;SDS011;32066;49.474;11.106;2023-08-21T11:38:02;8.93;;;6.22;;
46355;SDS011;32066;49.474;11.106;2023-08-21T11:40:34;11.57;;;6.53;;
46355;SDS011;32066;49.474;11.106;2023-08-21T11:43:05;12.38;;;6.20;;
46355;SDS011;32066;49.474;11.106;2023-08-21T11:45:34;14.05;;;6.57;;
46355;SDS011;32066;49.474;11.106;2023-08-21T11:48:03;11.43;;;6.35;;
46355;SDS011;32066;49.474;11.106;2023-08-21T11:50:32;11.10;;;5.95;;
46355;SDS011;32066;49.474;11.106;2023-08-21T11:53:02;7.97;;;5.55;;
46355;SDS011;32066;49.474;11.106;2023-08-21T11:55:31;11.18;;;6.30;;
46355;SDS011;32066;49.474;11.106;2023-08-21T11:58:00;10.32;;;6.00;;
46355;SDS011;32066;49.474;11.106;2023-08-21T12:00:32;10.25;;;6.10;;
46355;SDS011;32066;49.474;11.106;2023-08-21T12:03:01;12.05;;;6.47;;
46355;SDS011;32066;49.474;11.106;2023-08-21T12:05:33;9.35;;;6.25;;
46355;SDS011;32066;49.474;11.106;2023-08-21T12:08:02;9.15;;;6.65;;
46355;SDS011;32066;49.474;11.106;2023-08-21T12:10:32;9.77;;;5.90;;
46355;SDS011;32066;49.474;11.106;2023-08-21T12:13:00;8.55;;;5.78;;
46355;SDS011;32066;49.474;11.106;2023-08-21T12:15:31;9.55;;;6.50;;
46355;SDS011;32066;49.474;11.106;2023-08-21T12:18:00;10.55;;;6.32;;
46355;SDS011;32066;49.474;11.106;2023-08-21T12:20:29;9.57;;;6.30;;
46355;SDS011;32066;49.474;11.106;2023-08-21T12:22:57;11.13;;;6.40;;
46355;SDS011;32066;49.474;11.106;2023-08-21T12:25:26;10.68;;;6.97;;
46355;SDS011;32066;49.474;11.106;2023-08-21T12:27:57;11.13;;;6.03;;
46355;SDS011;32066;49.474;11.106;2023-08-21T12:30:25;9.38;;;6.13;;
46355;SDS011;32066;49.474;11.106;2023-08-21T12:32:56;12.80;;;7.03;;
46355;SDS011;32066;49.474;11.106;2023-08-21T12:35:25;10.38;;;7.03;;
46355;SDS011;32066;49.474;11.106;2023-08-21T12:37:56;15.27;;;7.53;;
46355;SDS011;32066;49.474;11.106;2023-08-21T12:40:30;10.82;;;6.70;;
46355;SDS011;32066;49.474;11.106;2023-08-21T12:42:59;14.27;;;7.47;;
46355;SDS011;32066;49.474;11.106;2023-08-21T12:45:28;11.23;;;6.75;;
46355;SDS011;32066;49.474;11.106;2023-08-21T12:48:00;16.05;;;7.20;;
46355;SDS011;32066;49.474;11.106;2023-08-21T12:50:29;11.98;;;7.82;;
46355;SDS011;32066;49.474;11.106;2023-08-21T12:52:57;11.23;;;7.15;;
46355;SDS011;32066;49.474;11.106;2023-08-21T12:55:27;11.20;;;7.53;;
46355;SDS011;32066;49.474;11.106;2023-08-21T12:57:56;11.43;;;6.63;;
46355;SDS011;32066;49.474;11.106;2023-08-21T13:00:25;15.15;;;6.80;;
46355;SDS011;32066;49.474;11.106;2023-08-21T13:02:54;10.38;;;6.55;;
46355;SDS011;32066;49.474;11.106;2023-08-21T13:05:25;12.45;;;6.25;;
46355;SDS011;32066;49.474;11.106;2023-08-21T13:07:54;10.23;;;6.15;;
46355;SDS011;32066;49.474;11.106;2023-08-21T13:10:22;12.75;;;6.10;;
46355;SDS011;32066;49.474;11.106;2023-08-21T13:12:51;10.07;;;6.47;;
46355;SDS011;32066;49.474;11.106;2023-08-21T13:15:20;9.32;;;6.20;;
46355;SDS011;32066;49.474;11.106;2023-08-21T13:17:48;13.73;;;6.10;;
46355;SDS011;32066;49.474;11.106;2023-08-21T13:20:17;14.32;;;6.28;;
46355;SDS011;32066;49.474;11.106;2023-08-21T13:22:49;8.57;;;5.32;;
46355;SDS011;32066;49.474;11.106;2023-08-21T13:25:19;9.65;;;5.70;;
46355;SDS011;32066;49.474;11.106;2023-08-21T13:27:49;10.00;;;5.75;;
46355;SDS011;32066;49.474;11.106;2023-08-21T13:30:18;7.40;;;5.65;;
46355;SDS011;32066;49.474;11.106;2023-08-21T13:32:49;10.55;;;5.88;;
46355;SDS011;32066;49.474;11.106;2023-08-21T13:35:19;14.38;;;6.00;;
46355;SDS011;32066;49.474;11.106;2023-08-21T13:37:52;9.40;;;5.82;;
46355;SDS011;32066;49.474;11.106;2023-08-21T13:40:21;8.95;;;5.78;;
46355;SDS011;32066;49.474;11.106;2023-08-21T13:42:49;11.77;;;5.57;;
46355;SDS011;32066;49.474;11.106;2023-08-21T13:45:19;11.23;;;6.10;;
46355;SDS011;32066;49.474;11.106;2023-08-21T13:47:48;12.98;;;5.88;;
46355;SDS011;32066;49.474;11.106;2023-08-21T13:50:18;10.52;;;5.85;;
46355;SDS011;32066;49.474;11.106;2023-08-21T13:52:47;9.75;;;5.50;;
46355;SDS011;32066;49.474;11.106;2023-08-21T13:55:18;8.82;;;5.53;;
46355;SDS011;32066;49.474;11.106;2023-08-21T13:57:47;9.80;;;5.00;;
46355;SDS011;32066;49.474;11.106;2023-08-21T14:00:16;10.05;;;5.38;;
46355;SDS011;32066;49.474;11.106;2023-08-21T14:02:45;8.85;;;4.93;;
46355;SDS011;32066;49.474;11.106;2023-08-21T14:05:14;8.02;;;5.30;;
46355;SDS011;32066;49.474;11.106;2023-08-21T14:07:42;7.43;;;5.03;;
46355;SDS011;32066;49.474;11.106;2023-08-21T14:10:11;9.45;;;5.35;;
46355;SDS011;32066;49.474;11.106;2023-08-21T14:12:43;8.88;;;5.28;;
46355;SDS011;32066;49.474;11.106;2023-08-21T14:15:12;9.73;;;5.25;;
46355;SDS011;32066;49.474;11.106;2023-08-21T14:17:40;10.65;;;5.30;;
46355;SDS011;32066;49.474;11.106;2023-08-21T14:20:10;8.23;;;4.90;;
46355;SDS011;32066;49.474;11.106;2023-08-21T14:22:39;10.10;;;5.60;;
46355;SDS011;32066;49.474;11.106;2023-08-21T14:25:08;11.13;;;5.35;;
46355;SDS011;32066;49.474;11.106;2023-08-21T14:27:36;7.47;;;5.13;;
46355;SDS011;32066;49.474;11.106;2023-08-21T14:30:08;11.90;;;4.85;;